aviador You're here:

EYVI Decoded Metar

VILNIUS INTL in LITHUANIA
Report Time2018-05-28 09:20:00
UTC Time2018-05-28 09:46:33
Flight Rules vfr VFR
Wind160° at 05 kt
W.Decomp.*RWY 20: 3.5 kt HW 3.6 kt LCW
W.Rank160° ranks 2
Current wind is below 160° avg. (7.0)
Visibility9999 m
Phenomena:N/A
Clouds:N/A
Expected CloudBase > 6,400 ft AGL from Temp-Dew spread
CeilingNone
Temp26°C (ISA +12)
Dew Point10°C (37% RH)
AAT24.3°C
QNH1027 hPa
Density Alt1,765 ft
Elevation646 ft
Report Wrong Elevation
Raw Report
METAR EYVI 280920Z 16005KT 110V210 CAVOK 26/10 Q1027 NOSIG=

Extra information for EYVI:More info

Metar Taf Metar & Taf Last 4 Metars F.Rules Stats Wind Profile Meteogram Temp Stats Airport Information Weather charts Add Link Nearby VenuesMetar ALERT Operation Metar Decoded Social comments